sensor_id;sensor_type;location;lat;lon;timestamp;P1;durP1;ratioP1;P2;durP2;ratioP2
22863;SDS011;11599;49.882;8.680;2024-01-30T00:03:27;12.93;;;5.70;;
22863;SDS011;11599;49.882;8.680;2024-01-30T00:13:50;17.33;;;6.67;;
22863;SDS011;11599;49.882;8.680;2024-01-30T00:24:12;10.83;;;5.23;;
22863;SDS011;11599;49.882;8.680;2024-01-30T00:34:34;13.57;;;5.67;;
22863;SDS011;11599;49.882;8.680;2024-01-30T00:44:57;11.57;;;5.63;;
22863;SDS011;11599;49.882;8.680;2024-01-30T00:55:19;11.83;;;5.10;;
22863;SDS011;11599;49.882;8.680;2024-01-30T01:05:41;17.50;;;6.67;;
22863;SDS011;11599;49.882;8.680;2024-01-30T01:16:03;14.70;;;6.20;;
22863;SDS011;11599;49.882;8.680;2024-01-30T01:26:26;13.93;;;6.23;;
22863;SDS011;11599;49.882;8.680;2024-01-30T01:36:48;12.63;;;5.83;;
22863;SDS011;11599;49.882;8.680;2024-01-30T01:47:10;13.27;;;5.33;;
22863;SDS011;11599;49.882;8.680;2024-01-30T01:57:33;17.20;;;5.93;;
22863;SDS011;11599;49.882;8.680;2024-01-30T02:07:55;15.07;;;6.47;;
22863;SDS011;11599;49.882;8.680;2024-01-30T02:18:19;15.50;;;6.83;;
22863;SDS011;11599;49.882;8.680;2024-01-30T02:28:42;14.70;;;6.57;;
22863;SDS011;11599;49.882;8.680;2024-01-30T02:39:04;13.80;;;6.50;;
22863;SDS011;11599;49.882;8.680;2024-01-30T02:49:26;15.87;;;7.00;;
22863;SDS011;11599;49.882;8.680;2024-01-30T02:59:48;16.83;;;6.83;;
22863;SDS011;11599;49.882;8.680;2024-01-30T03:10:10;14.83;;;6.63;;
22863;SDS011;11599;49.882;8.680;2024-01-30T03:20:32;15.27;;;6.97;;
22863;SDS011;11599;49.882;8.680;2024-01-30T03:30:55;17.43;;;7.00;;
22863;SDS011;11599;49.882;8.680;2024-01-30T03:41:16;18.27;;;9.17;;
22863;SDS011;11599;49.882;8.680;2024-01-30T03:51:39;18.77;;;7.23;;
22863;SDS011;11599;49.882;8.680;2024-01-30T04:02:00;17.50;;;7.00;;
22863;SDS011;11599;49.882;8.680;2024-01-30T04:12:23;18.73;;;7.93;;
22863;SDS011;11599;49.882;8.680;2024-01-30T04:22:44;15.87;;;8.03;;
22863;SDS011;11599;49.882;8.680;2024-01-30T04:33:07;16.27;;;6.80;;
22863;SDS011;11599;49.882;8.680;2024-01-30T04:43:29;16.23;;;7.17;;
22863;SDS011;11599;49.882;8.680;2024-01-30T04:53:52;17.47;;;7.40;;
22863;SDS011;11599;49.882;8.680;2024-01-30T05:04:13;16.33;;;6.63;;
22863;SDS011;11599;49.882;8.680;2024-01-30T05:14:36;14.50;;;6.80;;
22863;SDS011;11599;49.882;8.680;2024-01-30T05:24:57;18.17;;;7.57;;
22863;SDS011;11599;49.882;8.680;2024-01-30T05:35:20;17.87;;;7.23;;
22863;SDS011;11599;49.882;8.680;2024-01-30T05:45:42;18.90;;;6.90;;
22863;SDS011;11599;49.882;8.680;2024-01-30T05:56:05;17.67;;;7.10;;
22863;SDS011;11599;49.882;8.680;2024-01-30T06:06:26;16.57;;;6.83;;
22863;SDS011;11599;49.882;8.680;2024-01-30T06:16:49;13.67;;;6.77;;
22863;SDS011;11599;49.882;8.680;2024-01-30T06:27:11;16.87;;;7.63;;
22863;SDS011;11599;49.882;8.680;2024-01-30T06:37:39;21.97;;;8.03;;
22863;SDS011;11599;49.882;8.680;2024-01-30T06:48:01;18.43;;;7.73;;
22863;SDS011;11599;49.882;8.680;2024-01-30T06:58:24;15.33;;;6.60;;
22863;SDS011;11599;49.882;8.680;2024-01-30T07:08:45;18.07;;;6.47;;
22863;SDS011;11599;49.882;8.680;2024-01-30T07:19:08;16.27;;;6.93;;
22863;SDS011;11599;49.882;8.680;2024-01-30T07:29:30;19.27;;;7.17;;
22863;SDS011;11599;49.882;8.680;2024-01-30T07:39:52;16.53;;;7.73;;
22863;SDS011;11599;49.882;8.680;2024-01-30T07:50:14;15.27;;;6.93;;
22863;SDS011;11599;49.882;8.680;2024-01-30T08:00:37;17.00;;;7.47;;
22863;SDS011;11599;49.882;8.680;2024-01-30T08:10:58;14.10;;;7.30;;
22863;SDS011;11599;49.882;8.680;2024-01-30T08:21:21;17.07;;;7.70;;
22863;SDS011;11599;49.882;8.680;2024-01-30T08:31:43;18.30;;;7.53;;
22863;SDS011;11599;49.882;8.680;2024-01-30T08:42:07;23.87;;;10.87;;
22863;SDS011;11599;49.882;8.680;2024-01-30T08:52:29;26.03;;;11.00;;
22863;SDS011;11599;49.882;8.680;2024-01-30T09:02:51;24.93;;;11.83;;
22863;SDS011;11599;49.882;8.680;2024-01-30T09:13:13;26.03;;;11.37;;
22863;SDS011;11599;49.882;8.680;2024-01-30T09:23:36;22.70;;;11.10;;
22863;SDS011;11599;49.882;8.680;2024-01-30T09:33:57;21.63;;;10.53;;
22863;SDS011;11599;49.882;8.680;2024-01-30T09:44:20;31.20;;;10.73;;
22863;SDS011;11599;49.882;8.680;2024-01-30T09:54:41;21.50;;;10.30;;
22863;SDS011;11599;49.882;8.680;2024-01-30T10:05:04;23.40;;;11.73;;
22863;SDS011;11599;49.882;8.680;2024-01-30T10:15:26;22.17;;;10.53;;
22863;SDS011;11599;49.882;8.680;2024-01-30T10:25:51;20.30;;;9.47;;
22863;SDS011;11599;49.882;8.680;2024-01-30T10:36:13;20.77;;;10.00;;
22863;SDS011;11599;49.882;8.680;2024-01-30T10:46:37;17.50;;;9.47;;
22863;SDS011;11599;49.882;8.680;2024-01-30T10:56:59;17.90;;;9.80;;
22863;SDS011;11599;49.882;8.680;2024-01-30T11:07:25;16.77;;;8.90;;
22863;SDS011;11599;49.882;8.680;2024-01-30T11:17:50;16.90;;;8.70;;
22863;SDS011;11599;49.882;8.680;2024-01-30T11:28:14;19.30;;;9.53;;
22863;SDS011;11599;49.882;8.680;2024-01-30T11:38:36;16.50;;;9.37;;
22863;SDS011;11599;49.882;8.680;2024-01-30T11:48:59;18.33;;;8.53;;
22863;SDS011;11599;49.882;8.680;2024-01-30T11:59:20;17.70;;;8.33;;
22863;SDS011;11599;49.882;8.680;2024-01-30T12:09:51;16.63;;;8.33;;
22863;SDS011;11599;49.882;8.680;2024-01-30T12:20:13;18.73;;;8.10;;
22863;SDS011;11599;49.882;8.680;2024-01-30T12:30:36;14.23;;;7.13;;
22863;SDS011;11599;49.882;8.680;2024-01-30T12:40:57;17.37;;;7.90;;
22863;SDS011;11599;49.882;8.680;2024-01-30T12:51:20;17.80;;;9.67;;
22863;SDS011;11599;49.882;8.680;2024-01-30T13:01:42;16.40;;;7.63;;
22863;SDS011;11599;49.882;8.680;2024-01-30T17:08:50;14.97;;;6.40;;
22863;SDS011;11599;49.882;8.680;2024-01-30T17:19:16;14.43;;;6.53;;
22863;SDS011;11599;49.882;8.680;2024-01-30T17:29:43;16.60;;;7.30;;
22863;SDS011;11599;49.882;8.680;2024-01-30T17:40:05;18.03;;;7.10;;
22863;SDS011;11599;49.882;8.680;2024-01-30T17:50:21;13.77;;;6.40;;
22863;SDS011;11599;49.882;8.680;2024-01-30T18:00:42;14.13;;;7.20;;
22863;SDS011;11599;49.882;8.680;2024-01-30T18:21:22;13.60;;;6.77;;
22863;SDS011;11599;49.882;8.680;2024-01-30T18:31:44;15.57;;;7.87;;
22863;SDS011;11599;49.882;8.680;2024-01-30T18:42:06;18.63;;;7.63;;
22863;SDS011;11599;49.882;8.680;2024-01-30T18:52:28;14.00;;;7.47;;
22863;SDS011;11599;49.882;8.680;2024-01-30T19:02:51;14.23;;;7.57;;
22863;SDS011;11599;49.882;8.680;2024-01-30T19:13:13;13.50;;;6.93;;
22863;SDS011;11599;49.882;8.680;2024-01-30T19:23:36;16.07;;;8.17;;
22863;SDS011;11599;49.882;8.680;2024-01-30T19:33:57;17.33;;;8.60;;
22863;SDS011;11599;49.882;8.680;2024-01-30T19:44:20;16.43;;;7.67;;
22863;SDS011;11599;49.882;8.680;2024-01-30T19:54:41;18.73;;;8.30;;
22863;SDS011;11599;49.882;8.680;2024-01-30T20:05:04;15.97;;;8.27;;
22863;SDS011;11599;49.882;8.680;2024-01-30T20:15:26;14.57;;;7.53;;
22863;SDS011;11599;49.882;8.680;2024-01-30T20:25:50;18.50;;;8.07;;
22863;SDS011;11599;49.882;8.680;2024-01-30T20:36:11;17.17;;;8.50;;
22863;SDS011;11599;49.882;8.680;2024-01-30T20:46:35;18.10;;;8.80;;
22863;SDS011;11599;49.882;8.680;2024-01-30T21:07:20;17.80;;;8.30;;
22863;SDS011;11599;49.882;8.680;2024-01-30T21:28:04;17.90;;;8.10;;
22863;SDS011;11599;49.882;8.680;2024-01-30T21:38:25;18.77;;;7.73;;
22863;SDS011;11599;49.882;8.680;2024-01-30T21:48:48;17.83;;;7.80;;
22863;SDS011;11599;49.882;8.680;2024-01-30T21:59:10;17.43;;;8.30;;
22863;SDS011;11599;49.882;8.680;2024-01-30T22:19:49;16.60;;;8.40;;
22863;SDS011;11599;49.882;8.680;2024-01-30T22:30:11;20.07;;;8.73;;
22863;SDS011;11599;49.882;8.680;2024-01-30T22:40:34;16.40;;;8.73;;
22863;SDS011;11599;49.882;8.680;2024-01-30T22:50:55;26.80;;;8.93;;
22863;SDS011;11599;49.882;8.680;2024-01-30T23:01:18;15.90;;;8.60;;
22863;SDS011;11599;49.882;8.680;2024-01-30T23:11:40;18.60;;;8.60;;
22863;SDS011;11599;49.882;8.680;2024-01-30T23:22:03;19.33;;;9.30;;
22863;SDS011;11599;49.882;8.680;2024-01-30T23:32:24;22.60;;;9.23;;
22863;SDS011;11599;49.882;8.680;2024-01-30T23:42:47;24.33;;;10.60;;
22863;SDS011;11599;49.882;8.680;2024-01-30T23:53:08;22.93;;;11.40;;
